sensor_id;sensor_type;location;lat;lon;timestamp;P1;durP1;ratioP1;P2;durP2;ratioP2
6651;SDS011;3362;50.892;10.692;2023-03-19T00:01:43;6.10;;;2.60;;
6651;SDS011;3362;50.892;10.692;2023-03-19T00:04:10;4.63;;;2.78;;
6651;SDS011;3362;50.892;10.692;2023-03-19T00:06:37;3.20;;;2.10;;
6651;SDS011;3362;50.892;10.692;2023-03-19T00:09:03;5.35;;;2.42;;
6651;SDS011;3362;50.892;10.692;2023-03-19T00:11:29;3.33;;;1.80;;
6651;SDS011;3362;50.892;10.692;2023-03-19T00:13:56;5.90;;;2.95;;
6651;SDS011;3362;50.892;10.692;2023-03-19T00:16:22;3.28;;;2.05;;
6651;SDS011;3362;50.892;10.692;2023-03-19T00:18:48;5.65;;;2.65;;
6651;SDS011;3362;50.892;10.692;2023-03-19T00:21:16;7.03;;;2.63;;
6651;SDS011;3362;50.892;10.692;2023-03-19T00:23:42;3.00;;;2.17;;
6651;SDS011;3362;50.892;10.692;2023-03-19T00:26:08;4.30;;;2.50;;
6651;SDS011;3362;50.892;10.692;2023-03-19T00:28:35;7.28;;;2.00;;
6651;SDS011;3362;50.892;10.692;2023-03-19T00:31:06;4.20;;;2.30;;
6651;SDS011;3362;50.892;10.692;2023-03-19T00:33:32;6.90;;;2.55;;
6651;SDS011;3362;50.892;10.692;2023-03-19T00:35:58;6.03;;;2.72;;
6651;SDS011;3362;50.892;10.692;2023-03-19T00:38:26;5.32;;;2.53;;
6651;SDS011;3362;50.892;10.692;2023-03-19T00:40:53;3.42;;;2.08;;
6651;SDS011;3362;50.892;10.692;2023-03-19T00:43:19;2.05;;;1.52;;
6651;SDS011;3362;50.892;10.692;2023-03-19T00:45:45;4.13;;;2.15;;
6651;SDS011;3362;50.892;10.692;2023-03-19T00:48:11;4.82;;;2.10;;
6651;SDS011;3362;50.892;10.692;2023-03-19T00:50:38;4.75;;;1.70;;
6651;SDS011;3362;50.892;10.692;2023-03-19T00:53:04;3.10;;;1.48;;
6651;SDS011;3362;50.892;10.692;2023-03-19T00:55:31;4.13;;;1.88;;
6651;SDS011;3362;50.892;10.692;2023-03-19T00:57:58;6.22;;;2.03;;
6651;SDS011;3362;50.892;10.692;2023-03-19T01:00:24;4.18;;;1.70;;
6651;SDS011;3362;50.892;10.692;2023-03-19T01:02:51;5.38;;;2.10;;
6651;SDS011;3362;50.892;10.692;2023-03-19T01:05:18;4.10;;;2.30;;
6651;SDS011;3362;50.892;10.692;2023-03-19T01:07:44;4.43;;;1.77;;
6651;SDS011;3362;50.892;10.692;2023-03-19T01:10:10;4.18;;;1.50;;
6651;SDS011;3362;50.892;10.692;2023-03-19T01:12:38;2.88;;;1.52;;
6651;SDS011;3362;50.892;10.692;2023-03-19T01:15:05;3.70;;;1.60;;
6651;SDS011;3362;50.892;10.692;2023-03-19T01:17:32;4.85;;;1.60;;
6651;SDS011;3362;50.892;10.692;2023-03-19T01:19:59;3.30;;;1.67;;
6651;SDS011;3362;50.892;10.692;2023-03-19T01:22:25;3.63;;;1.63;;
6651;SDS011;3362;50.892;10.692;2023-03-19T01:24:51;2.72;;;1.35;;
6651;SDS011;3362;50.892;10.692;2023-03-19T01:27:17;3.28;;;1.85;;
6651;SDS011;3362;50.892;10.692;2023-03-19T01:29:46;4.97;;;2.00;;
6651;SDS011;3362;50.892;10.692;2023-03-19T01:32:12;3.60;;;1.70;;
6651;SDS011;3362;50.892;10.692;2023-03-19T01:34:38;3.78;;;1.40;;
6651;SDS011;3362;50.892;10.692;2023-03-19T01:37:05;5.03;;;2.10;;
6651;SDS011;3362;50.892;10.692;2023-03-19T01:39:31;8.68;;;1.42;;
6651;SDS011;3362;50.892;10.692;2023-03-19T01:41:59;2.67;;;1.23;;
6651;SDS011;3362;50.892;10.692;2023-03-19T01:44:26;2.58;;;1.67;;
6651;SDS011;3362;50.892;10.692;2023-03-19T01:46:54;4.95;;;2.00;;
6651;SDS011;3362;50.892;10.692;2023-03-19T01:49:21;5.55;;;1.98;;
6651;SDS011;3362;50.892;10.692;2023-03-19T01:51:48;4.18;;;1.70;;
6651;SDS011;3362;50.892;10.692;2023-03-19T01:54:15;4.55;;;1.80;;
6651;SDS011;3362;50.892;10.692;2023-03-19T01:56:43;3.17;;;1.77;;
6651;SDS011;3362;50.892;10.692;2023-03-19T01:59:13;4.75;;;1.70;;
6651;SDS011;3362;50.892;10.692;2023-03-19T02:01:42;4.03;;;1.90;;
6651;SDS011;3362;50.892;10.692;2023-03-19T02:04:12;3.25;;;2.10;;
6651;SDS011;3362;50.892;10.692;2023-03-19T02:06:39;3.78;;;2.28;;
6651;SDS011;3362;50.892;10.692;2023-03-19T02:09:05;4.93;;;1.90;;
6651;SDS011;3362;50.892;10.692;2023-03-19T02:11:32;4.80;;;1.98;;
6651;SDS011;3362;50.892;10.692;2023-03-19T02:13:58;6.45;;;2.15;;
6651;SDS011;3362;50.892;10.692;2023-03-19T02:16:25;3.97;;;1.65;;
6651;SDS011;3362;50.892;10.692;2023-03-19T02:18:51;2.53;;;1.80;;
6651;SDS011;3362;50.892;10.692;2023-03-19T02:21:19;5.30;;;2.42;;
6651;SDS011;3362;50.892;10.692;2023-03-19T02:23:46;6.05;;;3.20;;
6651;SDS011;3362;50.892;10.692;2023-03-19T02:26:18;4.72;;;2.30;;
6651;SDS011;3362;50.892;10.692;2023-03-19T02:28:46;4.63;;;1.60;;
6651;SDS011;3362;50.892;10.692;2023-03-19T02:31:14;6.40;;;2.00;;
6651;SDS011;3362;50.892;10.692;2023-03-19T02:33:40;3.70;;;1.90;;
6651;SDS011;3362;50.892;10.692;2023-03-19T02:36:08;4.90;;;1.83;;
6651;SDS011;3362;50.892;10.692;2023-03-19T02:38:35;3.65;;;1.75;;
6651;SDS011;3362;50.892;10.692;2023-03-19T02:41:05;1.88;;;1.60;;
6651;SDS011;3362;50.892;10.692;2023-03-19T02:43:34;8.98;;;2.50;;
6651;SDS011;3362;50.892;10.692;2023-03-19T02:46:00;3.83;;;1.60;;
6651;SDS011;3362;50.892;10.692;2023-03-19T02:48:27;5.38;;;1.77;;
6651;SDS011;3362;50.892;10.692;2023-03-19T02:50:53;3.97;;;1.67;;
6651;SDS011;3362;50.892;10.692;2023-03-19T02:53:20;3.08;;;2.10;;
6651;SDS011;3362;50.892;10.692;2023-03-19T02:55:46;4.40;;;1.60;;
6651;SDS011;3362;50.892;10.692;2023-03-19T02:58:12;3.33;;;1.58;;
6651;SDS011;3362;50.892;10.692;2023-03-19T03:00:40;3.22;;;1.42;;
6651;SDS011;3362;50.892;10.692;2023-03-19T03:03:06;2.45;;;1.58;;
6651;SDS011;3362;50.892;10.692;2023-03-19T03:05:32;3.08;;;1.58;;
6651;SDS011;3362;50.892;10.692;2023-03-19T03:07:59;2.70;;;1.40;;
6651;SDS011;3362;50.892;10.692;2023-03-19T03:10:25;2.70;;;1.83;;
6651;SDS011;3362;50.892;10.692;2023-03-19T03:12:51;5.85;;;2.15;;
6651;SDS011;3362;50.892;10.692;2023-03-19T03:15:18;3.70;;;1.67;;
6651;SDS011;3362;50.892;10.692;2023-03-19T03:17:45;4.55;;;1.40;;
6651;SDS011;3362;50.892;10.692;2023-03-19T03:20:12;3.17;;;1.40;;
6651;SDS011;3362;50.892;10.692;2023-03-19T03:22:39;2.38;;;1.27;;
6651;SDS011;3362;50.892;10.692;2023-03-19T03:25:06;3.13;;;1.83;;
6651;SDS011;3362;50.892;10.692;2023-03-19T03:27:33;1.92;;;1.05;;
6651;SDS011;3362;50.892;10.692;2023-03-19T03:30:00;3.75;;;1.63;;
6651;SDS011;3362;50.892;10.692;2023-03-19T03:32:27;2.38;;;1.25;;
6651;SDS011;3362;50.892;10.692;2023-03-19T03:34:54;3.10;;;1.42;;
6651;SDS011;3362;50.892;10.692;2023-03-19T03:37:20;2.80;;;1.73;;
6651;SDS011;3362;50.892;10.692;2023-03-19T03:39:47;4.13;;;1.58;;
6651;SDS011;3362;50.892;10.692;2023-03-19T03:42:13;2.22;;;1.63;;
6651;SDS011;3362;50.892;10.692;2023-03-19T03:44:39;3.40;;;1.63;;
6651;SDS011;3362;50.892;10.692;2023-03-19T03:47:05;4.25;;;1.85;;
6651;SDS011;3362;50.892;10.692;2023-03-19T03:49:32;2.90;;;2.00;;
6651;SDS011;3362;50.892;10.692;2023-03-19T03:51:59;4.57;;;2.03;;
6651;SDS011;3362;50.892;10.692;2023-03-19T03:54:26;3.30;;;1.92;;
6651;SDS011;3362;50.892;10.692;2023-03-19T03:56:52;4.97;;;2.38;;
6651;SDS011;3362;50.892;10.692;2023-03-19T03:59:18;2.42;;;1.67;;
6651;SDS011;3362;50.892;10.692;2023-03-19T04:01:44;3.88;;;1.98;;
6651;SDS011;3362;50.892;10.692;2023-03-19T04:04:10;5.22;;;2.20;;
6651;SDS011;3362;50.892;10.692;2023-03-19T04:06:37;2.70;;;1.75;;
6651;SDS011;3362;50.892;10.692;2023-03-19T04:09:04;4.05;;;1.80;;
6651;SDS011;3362;50.892;10.692;2023-03-19T04:11:31;3.60;;;1.92;;
6651;SDS011;3362;50.892;10.692;2023-03-19T04:13:58;4.28;;;2.30;;
6651;SDS011;3362;50.892;10.692;2023-03-19T04:16:25;6.72;;;2.25;;
6651;SDS011;3362;50.892;10.692;2023-03-19T04:18:52;3.08;;;2.38;;
6651;SDS011;3362;50.892;10.692;2023-03-19T04:21:19;3.35;;;1.85;;
6651;SDS011;3362;50.892;10.692;2023-03-19T04:23:45;4.85;;;2.08;;
6651;SDS011;3362;50.892;10.692;2023-03-19T04:26:12;5.07;;;2.08;;
6651;SDS011;3362;50.892;10.692;2023-03-19T04:28:39;3.58;;;1.90;;
6651;SDS011;3362;50.892;10.692;2023-03-19T04:31:05;4.80;;;2.38;;
6651;SDS011;3362;50.892;10.692;2023-03-19T04:33:33;4.30;;;2.70;;
6651;SDS011;3362;50.892;10.692;2023-03-19T04:36:00;5.60;;;1.90;;
6651;SDS011;3362;50.892;10.692;2023-03-19T04:38:26;2.78;;;1.88;;
6651;SDS011;3362;50.892;10.692;2023-03-19T04:40:53;6.18;;;2.05;;
6651;SDS011;3362;50.892;10.692;2023-03-19T04:43:21;2.83;;;1.80;;
6651;SDS011;3362;50.892;10.692;2023-03-19T04:45:47;4.57;;;1.65;;
6651;SDS011;3362;50.892;10.692;2023-03-19T04:48:13;3.80;;;2.20;;
6651;SDS011;3362;50.892;10.692;2023-03-19T04:50:41;3.17;;;2.08;;
6651;SDS011;3362;50.892;10.692;2023-03-19T04:53:07;4.40;;;2.38;;
6651;SDS011;3362;50.892;10.692;2023-03-19T04:55:33;4.78;;;2.05;;
6651;SDS011;3362;50.892;10.692;2023-03-19T04:57:59;3.45;;;2.20;;
6651;SDS011;3362;50.892;10.692;2023-03-19T05:00:27;2.65;;;2.00;;
6651;SDS011;3362;50.892;10.692;2023-03-19T05:02:54;3.53;;;2.35;;
6651;SDS011;3362;50.892;10.692;2023-03-19T05:05:20;4.95;;;2.17;;
6651;SDS011;3362;50.892;10.692;2023-03-19T05:07:47;4.47;;;2.05;;
6651;SDS011;3362;50.892;10.692;2023-03-19T05:10:13;4.60;;;2.22;;
6651;SDS011;3362;50.892;10.692;2023-03-19T05:12:39;4.85;;;2.28;;
6651;SDS011;3362;50.892;10.692;2023-03-19T05:15:06;3.58;;;2.08;;
6651;SDS011;3362;50.892;10.692;2023-03-19T05:20:03;6.63;;;2.38;;
6651;SDS011;3362;50.892;10.692;2023-03-19T05:22:29;2.45;;;1.85;;
6651;SDS011;3362;50.892;10.692;2023-03-19T05:24:56;3.80;;;2.10;;
6651;SDS011;3362;50.892;10.692;2023-03-19T05:27:22;3.20;;;1.88;;
6651;SDS011;3362;50.892;10.692;2023-03-19T05:29:48;2.90;;;1.80;;
6651;SDS011;3362;50.892;10.692;2023-03-19T05:32:14;2.45;;;1.60;;
6651;SDS011;3362;50.892;10.692;2023-03-19T05:34:40;4.28;;;1.88;;
6651;SDS011;3362;50.892;10.692;2023-03-19T05:37:08;4.47;;;2.17;;
6651;SDS011;3362;50.892;10.692;2023-03-19T05:39:35;3.90;;;1.83;;
6651;SDS011;3362;50.892;10.692;2023-03-19T05:42:01;3.63;;;2.10;;
6651;SDS011;3362;50.892;10.692;2023-03-19T05:44:27;4.80;;;1.77;;
6651;SDS011;3362;50.892;10.692;2023-03-19T05:46:53;6.88;;;2.53;;
6651;SDS011;3362;50.892;10.692;2023-03-19T05:49:20;3.35;;;1.77;;
6651;SDS011;3362;50.892;10.692;2023-03-19T05:51:46;3.22;;;2.00;;
6651;SDS011;3362;50.892;10.692;2023-03-19T05:54:14;3.05;;;1.95;;
6651;SDS011;3362;50.892;10.692;2023-03-19T05:56:40;3.08;;;1.67;;
6651;SDS011;3362;50.892;10.692;2023-03-19T05:59:06;2.40;;;1.98;;
6651;SDS011;3362;50.892;10.692;2023-03-19T06:01:33;5.47;;;2.30;;
6651;SDS011;3362;50.892;10.692;2023-03-19T06:04:00;5.25;;;2.08;;
6651;SDS011;3362;50.892;10.692;2023-03-19T06:06:26;4.78;;;1.70;;
6651;SDS011;3362;50.892;10.692;2023-03-19T06:08:52;4.55;;;2.63;;
6651;SDS011;3362;50.892;10.692;2023-03-19T06:11:20;2.25;;;1.95;;
6651;SDS011;3362;50.892;10.692;2023-03-19T06:13:46;4.72;;;2.33;;
6651;SDS011;3362;50.892;10.692;2023-03-19T06:16:12;3.50;;;1.92;;
6651;SDS011;3362;50.892;10.692;2023-03-19T06:18:38;6.07;;;2.35;;
6651;SDS011;3362;50.892;10.692;2023-03-19T06:21:05;7.80;;;2.83;;
6651;SDS011;3362;50.892;10.692;2023-03-19T06:23:31;3.30;;;2.22;;
6651;SDS011;3362;50.892;10.692;2023-03-19T06:25:57;3.53;;;2.38;;
6651;SDS011;3362;50.892;10.692;2023-03-19T06:28:25;2.90;;;2.20;;
6651;SDS011;3362;50.892;10.692;2023-03-19T06:30:52;7.82;;;3.08;;
6651;SDS011;3362;50.892;10.692;2023-03-19T06:33:19;6.35;;;2.88;;
6651;SDS011;3362;50.892;10.692;2023-03-19T06:35:46;5.80;;;2.65;;
6651;SDS011;3362;50.892;10.692;2023-03-19T06:38:13;4.10;;;2.75;;
6651;SDS011;3362;50.892;10.692;2023-03-19T06:40:39;7.00;;;2.55;;
6651;SDS011;3362;50.892;10.692;2023-03-19T06:43:05;4.50;;;2.25;;
6651;SDS011;3362;50.892;10.692;2023-03-19T06:45:34;7.32;;;2.30;;
6651;SDS011;3362;50.892;10.692;2023-03-19T06:48:00;5.10;;;2.45;;
6651;SDS011;3362;50.892;10.692;2023-03-19T06:50:27;2.78;;;1.77;;
6651;SDS011;3362;50.892;10.692;2023-03-19T06:52:53;7.10;;;2.40;;
6651;SDS011;3362;50.892;10.692;2023-03-19T06:55:19;3.50;;;1.77;;
6651;SDS011;3362;50.892;10.692;2023-03-19T06:57:47;3.42;;;2.35;;
6651;SDS011;3362;50.892;10.692;2023-03-19T07:00:13;6.20;;;2.25;;
6651;SDS011;3362;50.892;10.692;2023-03-19T07:02:41;3.70;;;2.17;;
6651;SDS011;3362;50.892;10.692;2023-03-19T07:05:07;4.03;;;2.65;;
6651;SDS011;3362;50.892;10.692;2023-03-19T07:07:34;4.00;;;2.20;;
6651;SDS011;3362;50.892;10.692;2023-03-19T07:10:00;3.08;;;2.25;;
6651;SDS011;3362;50.892;10.692;2023-03-19T07:12:26;4.00;;;2.17;;
6651;SDS011;3362;50.892;10.692;2023-03-19T07:14:52;4.57;;;2.20;;
6651;SDS011;3362;50.892;10.692;2023-03-19T07:17:20;2.40;;;1.70;;
6651;SDS011;3362;50.892;10.692;2023-03-19T07:19:47;3.15;;;2.08;;
6651;SDS011;3362;50.892;10.692;2023-03-19T07:22:14;3.50;;;2.05;;
6651;SDS011;3362;50.892;10.692;2023-03-19T07:24:40;3.72;;;1.98;;
6651;SDS011;3362;50.892;10.692;2023-03-19T07:27:06;2.75;;;1.70;;
6651;SDS011;3362;50.892;10.692;2023-03-19T07:29:33;3.63;;;2.25;;
6651;SDS011;3362;50.892;10.692;2023-03-19T07:31:59;3.38;;;2.00;;
6651;SDS011;3362;50.892;10.692;2023-03-19T07:34:25;3.03;;;1.70;;
6651;SDS011;3362;50.892;10.692;2023-03-19T07:36:53;3.08;;;2.05;;
6651;SDS011;3362;50.892;10.692;2023-03-19T07:39:19;7.00;;;1.90;;
6651;SDS011;3362;50.892;10.692;2023-03-19T07:41:45;3.05;;;1.55;;
6651;SDS011;3362;50.892;10.692;2023-03-19T07:44:12;3.67;;;2.35;;
6651;SDS011;3362;50.892;10.692;2023-03-19T07:46:38;3.55;;;2.50;;
6651;SDS011;3362;50.892;10.692;2023-03-19T07:49:05;4.70;;;2.30;;
6651;SDS011;3362;50.892;10.692;2023-03-19T07:51:31;4.28;;;2.15;;
6651;SDS011;3362;50.892;10.692;2023-03-19T07:53:59;5.97;;;2.20;;
6651;SDS011;3362;50.892;10.692;2023-03-19T07:56:26;5.60;;;1.83;;
6651;SDS011;3362;50.892;10.692;2023-03-19T07:58:52;6.07;;;2.17;;
6651;SDS011;3362;50.892;10.692;2023-03-19T08:01:18;2.83;;;1.90;;
6651;SDS011;3362;50.892;10.692;2023-03-19T08:03:44;3.10;;;1.67;;
6651;SDS011;3362;50.892;10.692;2023-03-19T08:06:12;4.43;;;2.05;;
6651;SDS011;3362;50.892;10.692;2023-03-19T08:08:38;2.45;;;1.60;;
6651;SDS011;3362;50.892;10.692;2023-03-19T08:11:06;2.47;;;1.98;;
6651;SDS011;3362;50.892;10.692;2023-03-19T08:13:32;4.18;;;1.85;;
6651;SDS011;3362;50.892;10.692;2023-03-19T08:15:59;2.15;;;1.42;;
6651;SDS011;3362;50.892;10.692;2023-03-19T08:18:25;6.75;;;2.25;;
6651;SDS011;3362;50.892;10.692;2023-03-19T08:20:52;5.03;;;1.70;;
6651;SDS011;3362;50.892;10.692;2023-03-19T08:23:18;3.78;;;1.70;;
6651;SDS011;3362;50.892;10.692;2023-03-19T08:25:44;3.88;;;1.65;;
6651;SDS011;3362;50.892;10.692;2023-03-19T08:28:12;3.38;;;2.38;;
6651;SDS011;3362;50.892;10.692;2023-03-19T08:30:38;4.53;;;2.20;;
6651;SDS011;3362;50.892;10.692;2023-03-19T08:33:04;4.18;;;2.35;;
6651;SDS011;3362;50.892;10.692;2023-03-19T08:35:31;3.05;;;2.08;;
6651;SDS011;3362;50.892;10.692;2023-03-19T08:37:57;2.40;;;2.00;;
6651;SDS011;3362;50.892;10.692;2023-03-19T08:40:23;2.80;;;2.25;;
6651;SDS011;3362;50.892;10.692;2023-03-19T08:42:50;1.85;;;1.48;;
6651;SDS011;3362;50.892;10.692;2023-03-19T08:45:18;3.20;;;1.70;;
6651;SDS011;3362;50.892;10.692;2023-03-19T08:47:44;5.00;;;1.67;;
6651;SDS011;3362;50.892;10.692;2023-03-19T08:50:11;5.53;;;1.83;;
6651;SDS011;3362;50.892;10.692;2023-03-19T08:52:37;9.23;;;1.65;;
6651;SDS011;3362;50.892;10.692;2023-03-19T08:55:03;5.38;;;2.28;;
6651;SDS011;3362;50.892;10.692;2023-03-19T08:57:30;2.50;;;1.70;;
6651;SDS011;3362;50.892;10.692;2023-03-19T08:59:56;4.45;;;2.42;;
6651;SDS011;3362;50.892;10.692;2023-03-19T09:02:24;3.42;;;1.75;;
6651;SDS011;3362;50.892;10.692;2023-03-19T09:04:50;3.60;;;1.65;;
6651;SDS011;3362;50.892;10.692;2023-03-19T09:07:16;5.32;;;2.42;;
6651;SDS011;3362;50.892;10.692;2023-03-19T09:09:43;4.78;;;2.95;;
6651;SDS011;3362;50.892;10.692;2023-03-19T09:12:11;2.85;;;2.08;;
6651;SDS011;3362;50.892;10.692;2023-03-19T09:14:37;5.28;;;2.63;;
6651;SDS011;3362;50.892;10.692;2023-03-19T09:17:04;5.30;;;3.10;;
6651;SDS011;3362;50.892;10.692;2023-03-19T09:19:31;3.65;;;2.17;;
6651;SDS011;3362;50.892;10.692;2023-03-19T09:21:58;7.20;;;2.47;;
6651;SDS011;3362;50.892;10.692;2023-03-19T09:24:24;5.13;;;2.40;;
6651;SDS011;3362;50.892;10.692;2023-03-19T09:26:50;3.60;;;2.00;;
6651;SDS011;3362;50.892;10.692;2023-03-19T09:29:17;5.65;;;1.95;;
6651;SDS011;3362;50.892;10.692;2023-03-19T09:31:43;5.97;;;2.20;;
6651;SDS011;3362;50.892;10.692;2023-03-19T09:34:10;7.30;;;2.08;;
6651;SDS011;3362;50.892;10.692;2023-03-19T09:36:39;2.40;;;1.70;;
6651;SDS011;3362;50.892;10.692;2023-03-19T09:39:06;5.35;;;2.53;;
6651;SDS011;3362;50.892;10.692;2023-03-19T09:41:33;6.38;;;1.60;;
6651;SDS011;3362;50.892;10.692;2023-03-19T09:44:01;2.30;;;1.88;;
6651;SDS011;3362;50.892;10.692;2023-03-19T09:46:30;3.28;;;2.10;;
6651;SDS011;3362;50.892;10.692;2023-03-19T09:48:58;4.28;;;1.70;;
6651;SDS011;3362;50.892;10.692;2023-03-19T09:51:27;2.92;;;1.40;;
6651;SDS011;3362;50.892;10.692;2023-03-19T09:53:57;1.10;;;0.95;;
6651;SDS011;3362;50.892;10.692;2023-03-19T09:56:25;3.58;;;1.40;;
6651;SDS011;3362;50.892;10.692;2023-03-19T09:58:52;1.95;;;1.15;;
6651;SDS011;3362;50.892;10.692;2023-03-19T10:01:24;4.80;;;1.50;;
6651;SDS011;3362;50.892;10.692;2023-03-19T10:03:59;2.72;;;1.55;;
6651;SDS011;3362;50.892;10.692;2023-03-19T10:06:27;2.17;;;1.38;;
6651;SDS011;3362;50.892;10.692;2023-03-19T10:08:59;3.17;;;1.42;;
6651;SDS011;3362;50.892;10.692;2023-03-19T10:11:32;5.57;;;1.50;;
6651;SDS011;3362;50.892;10.692;2023-03-19T10:14:04;2.72;;;1.23;;
6651;SDS011;3362;50.892;10.692;2023-03-19T10:16:32;3.28;;;1.33;;
6651;SDS011;3362;50.892;10.692;2023-03-19T10:19:00;2.70;;;1.55;;
6651;SDS011;3362;50.892;10.692;2023-03-19T10:21:28;3.03;;;1.73;;
6651;SDS011;3362;50.892;10.692;2023-03-19T10:23:56;2.42;;;1.15;;
6651;SDS011;3362;50.892;10.692;2023-03-19T10:26:27;2.90;;;1.30;;
6651;SDS011;3362;50.892;10.692;2023-03-19T10:28:56;1.80;;;1.02;;
6651;SDS011;3362;50.892;10.692;2023-03-19T10:31:25;5.13;;;1.50;;
6651;SDS011;3362;50.892;10.692;2023-03-19T10:33:56;2.10;;;1.42;;
6651;SDS011;3362;50.892;10.692;2023-03-19T10:36:24;5.38;;;1.60;;
6651;SDS011;3362;50.892;10.692;2023-03-19T10:38:51;2.85;;;1.85;;
6651;SDS011;3362;50.892;10.692;2023-03-19T10:41:22;2.80;;;2.35;;
6651;SDS011;3362;50.892;10.692;2023-03-19T10:43:53;6.40;;;2.20;;
6651;SDS011;3362;50.892;10.692;2023-03-19T10:46:21;4.00;;;1.50;;
6651;SDS011;3362;50.892;10.692;2023-03-19T10:48:47;1.83;;;1.17;;
6651;SDS011;3362;50.892;10.692;2023-03-19T10:51:14;4.18;;;1.63;;
6651;SDS011;3362;50.892;10.692;2023-03-19T10:53:41;3.92;;;1.70;;
6651;SDS011;3362;50.892;10.692;2023-03-19T10:56:14;2.70;;;1.65;;
6651;SDS011;3362;50.892;10.692;2023-03-19T10:58:41;1.88;;;1.38;;
6651;SDS011;3362;50.892;10.692;2023-03-19T11:01:22;4.15;;;1.90;;
6651;SDS011;3362;50.892;10.692;2023-03-19T11:03:54;3.67;;;1.50;;
6651;SDS011;3362;50.892;10.692;2023-03-19T11:06:22;2.70;;;1.13;;
6651;SDS011;3362;50.892;10.692;2023-03-19T11:08:51;4.97;;;1.60;;
6651;SDS011;3362;50.892;10.692;2023-03-19T11:11:22;2.95;;;1.75;;
6651;SDS011;3362;50.892;10.692;2023-03-19T11:13:50;4.00;;;1.10;;
6651;SDS011;3362;50.892;10.692;2023-03-19T11:16:16;2.83;;;1.10;;
6651;SDS011;3362;50.892;10.692;2023-03-19T11:18:44;3.33;;;1.15;;
6651;SDS011;3362;50.892;10.692;2023-03-19T11:21:20;2.72;;;1.00;;
6651;SDS011;3362;50.892;10.692;2023-03-19T11:23:50;1.80;;;1.13;;
6651;SDS011;3362;50.892;10.692;2023-03-19T11:26:17;3.03;;;1.45;;
6651;SDS011;3362;50.892;10.692;2023-03-19T11:28:44;1.85;;;1.17;;
6651;SDS011;3362;50.892;10.692;2023-03-19T11:31:17;1.55;;;1.10;;
6651;SDS011;3362;50.892;10.692;2023-03-19T11:33:55;2.28;;;1.10;;
6651;SDS011;3362;50.892;10.692;2023-03-19T11:36:24;1.23;;;0.95;;
6651;SDS011;3362;50.892;10.692;2023-03-19T11:38:56;1.45;;;0.98;;
6651;SDS011;3362;50.892;10.692;2023-03-19T11:41:27;0.70;;;0.60;;
6651;SDS011;3362;50.892;10.692;2023-03-19T11:43:55;1.83;;;0.95;;
6651;SDS011;3362;50.892;10.692;2023-03-19T11:46:26;3.38;;;0.90;;
6651;SDS011;3362;50.892;10.692;2023-03-19T11:49:10;2.10;;;1.35;;
6651;SDS011;3362;50.892;10.692;2023-03-19T11:51:39;7.10;;;1.20;;
6651;SDS011;3362;50.892;10.692;2023-03-19T11:54:11;2.78;;;0.95;;
6651;SDS011;3362;50.892;10.692;2023-03-19T11:56:41;2.47;;;1.20;;
6651;SDS011;3362;50.892;10.692;2023-03-19T11:59:11;2.30;;;1.10;;
6651;SDS011;3362;50.892;10.692;2023-03-19T12:01:47;5.40;;;3.15;;
6651;SDS011;3362;50.892;10.692;2023-03-19T12:04:26;1.83;;;1.50;;
6651;SDS011;3362;50.892;10.692;2023-03-19T12:06:55;9.65;;;4.45;;
6651;SDS011;3362;50.892;10.692;2023-03-19T12:09:28;4.85;;;2.60;;
6651;SDS011;3362;50.892;10.692;2023-03-19T12:11:57;22.60;;;9.80;;
6651;SDS011;3362;50.892;10.692;2023-03-19T12:14:31;12.77;;;6.72;;
6651;SDS011;3362;50.892;10.692;2023-03-19T12:17:03;7.95;;;4.72;;
6651;SDS011;3362;50.892;10.692;2023-03-19T12:19:39;2.95;;;1.67;;
6651;SDS011;3362;50.892;10.692;2023-03-19T12:22:11;2.60;;;1.90;;
6651;SDS011;3362;50.892;10.692;2023-03-19T12:24:42;2.88;;;1.33;;
6651;SDS011;3362;50.892;10.692;2023-03-19T12:27:21;1.58;;;1.13;;
6651;SDS011;3362;50.892;10.692;2023-03-19T12:29:53;1.55;;;1.10;;
6651;SDS011;3362;50.892;10.692;2023-03-19T12:32:25;2.90;;;0.85;;
6651;SDS011;3362;50.892;10.692;2023-03-19T12:34:55;1.73;;;0.88;;
6651;SDS011;3362;50.892;10.692;2023-03-19T12:37:24;1.25;;;1.00;;
6651;SDS011;3362;50.892;10.692;2023-03-19T12:39:56;2.88;;;1.10;;
6651;SDS011;3362;50.892;10.692;2023-03-19T12:42:28;3.25;;;1.08;;
6651;SDS011;3362;50.892;10.692;2023-03-19T12:44:56;3.85;;;1.13;;
6651;SDS011;3362;50.892;10.692;2023-03-19T12:47:25;1.88;;;0.90;;
6651;SDS011;3362;50.892;10.692;2023-03-19T12:49:52;2.28;;;1.15;;
6651;SDS011;3362;50.892;10.692;2023-03-19T12:52:22;2.97;;;1.10;;
6651;SDS011;3362;50.892;10.692;2023-03-19T12:54:52;3.58;;;1.40;;
6651;SDS011;3362;50.892;10.692;2023-03-19T12:57:20;2.35;;;1.27;;
6651;SDS011;3362;50.892;10.692;2023-03-19T12:59:51;5.65;;;1.17;;
6651;SDS011;3362;50.892;10.692;2023-03-19T13:02:19;2.78;;;1.25;;
6651;SDS011;3362;50.892;10.692;2023-03-19T13:04:48;3.75;;;1.48;;
6651;SDS011;3362;50.892;10.692;2023-03-19T13:07:18;3.08;;;1.27;;
6651;SDS011;3362;50.892;10.692;2023-03-19T13:09:47;1.90;;;0.93;;
6651;SDS011;3362;50.892;10.692;2023-03-19T13:12:16;4.65;;;1.25;;
6651;SDS011;3362;50.892;10.692;2023-03-19T13:14:46;2.65;;;1.38;;
6651;SDS011;3362;50.892;10.692;2023-03-19T13:17:17;2.85;;;0.93;;
6651;SDS011;3362;50.892;10.692;2023-03-19T13:19:45;1.38;;;0.80;;
6651;SDS011;3362;50.892;10.692;2023-03-19T13:22:13;2.25;;;1.20;;
6651;SDS011;3362;50.892;10.692;2023-03-19T13:24:41;2.22;;;1.27;;
6651;SDS011;3362;50.892;10.692;2023-03-19T13:27:10;2.42;;;1.10;;
6651;SDS011;3362;50.892;10.692;2023-03-19T13:29:38;1.30;;;0.90;;
6651;SDS011;3362;50.892;10.692;2023-03-19T13:32:21;3.38;;;0.90;;
6651;SDS011;3362;50.892;10.692;2023-03-19T13:34:48;3.50;;;1.20;;
6651;SDS011;3362;50.892;10.692;2023-03-19T13:37:14;2.35;;;0.93;;
6651;SDS011;3362;50.892;10.692;2023-03-19T13:39:42;1.33;;;1.15;;
6651;SDS011;3362;50.892;10.692;2023-03-19T13:42:21;3.47;;;1.33;;
6651;SDS011;3362;50.892;10.692;2023-03-19T13:44:50;2.17;;;1.15;;
6651;SDS011;3362;50.892;10.692;2023-03-19T13:47:36;3.75;;;1.30;;
6651;SDS011;3362;50.892;10.692;2023-03-19T13:50:09;1.83;;;1.35;;
6651;SDS011;3362;50.892;10.692;2023-03-19T13:52:45;3.78;;;1.25;;
6651;SDS011;3362;50.892;10.692;2023-03-19T13:55:26;1.50;;;1.02;;
6651;SDS011;3362;50.892;10.692;2023-03-19T13:57:57;1.17;;;0.95;;
6651;SDS011;3362;50.892;10.692;2023-03-19T14:03:21;1.70;;;1.15;;
6651;SDS011;3362;50.892;10.692;2023-03-19T14:05:49;7.90;;;1.13;;
6651;SDS011;3362;50.892;10.692;2023-03-19T14:08:16;1.40;;;0.85;;
6651;SDS011;3362;50.892;10.692;2023-03-19T14:10:45;1.55;;;0.90;;
6651;SDS011;3362;50.892;10.692;2023-03-19T14:13:16;2.45;;;2.25;;
6651;SDS011;3362;50.892;10.692;2023-03-19T14:15:47;1.52;;;0.80;;
6651;SDS011;3362;50.892;10.692;2023-03-19T14:18:15;4.55;;;1.00;;
6651;SDS011;3362;50.892;10.692;2023-03-19T14:20:44;3.40;;;1.05;;
6651;SDS011;3362;50.892;10.692;2023-03-19T14:23:18;2.85;;;0.95;;
6651;SDS011;3362;50.892;10.692;2023-03-19T14:28:40;4.80;;;1.55;;
6651;SDS011;3362;50.892;10.692;2023-03-19T14:31:17;5.63;;;1.45;;
6651;SDS011;3362;50.892;10.692;2023-03-19T14:33:45;1.38;;;0.63;;
6651;SDS011;3362;50.892;10.692;2023-03-19T14:36:17;0.88;;;0.80;;
6651;SDS011;3362;50.892;10.692;2023-03-19T14:38:45;1.90;;;0.98;;
6651;SDS011;3362;50.892;10.692;2023-03-19T14:41:14;4.45;;;1.02;;
6651;SDS011;3362;50.892;10.692;2023-03-19T14:43:48;1.35;;;1.20;;
6651;SDS011;3362;50.892;10.692;2023-03-19T14:46:20;0.95;;;0.80;;
6651;SDS011;3362;50.892;10.692;2023-03-19T14:48:57;3.03;;;0.90;;
6651;SDS011;3362;50.892;10.692;2023-03-19T14:54:27;2.45;;;0.80;;
6651;SDS011;3362;50.892;10.692;2023-03-19T14:56:55;0.95;;;0.80;;
6651;SDS011;3362;50.892;10.692;2023-03-19T14:59:23;1.25;;;0.90;;
6651;SDS011;3362;50.892;10.692;2023-03-19T15:01:50;1.15;;;0.80;;
6651;SDS011;3362;50.892;10.692;2023-03-19T15:04:19;4.82;;;1.10;;
6651;SDS011;3362;50.892;10.692;2023-03-19T15:06:48;1.23;;;1.10;;
6651;SDS011;3362;50.892;10.692;2023-03-19T15:09:17;3.72;;;0.73;;
6651;SDS011;3362;50.892;10.692;2023-03-19T15:12:01;4.75;;;1.15;;
6651;SDS011;3362;50.892;10.692;2023-03-19T15:14:35;1.35;;;0.90;;
6651;SDS011;3362;50.892;10.692;2023-03-19T15:17:05;2.17;;;1.15;;